Map

Track Data

SID SEASON NUMBER BASIN SUBBASIN NAME ISO_TIME NATURE LAT LON WMO_WIND WMO_PRES WMO_AGENCY TRACK_TYPE DIST2LAND LANDFALL IFLAG USA_AGENCY USA_ATCF_ID USA_LAT USA_LON USA_RECORD USA_STATUS USA_WIND USA_PRES USA_SSHS USA_R34_NE USA_R34_SE USA_R34_SW USA_R34_NW USA_R50_NE USA_R50_SE USA_R50_SW USA_R50_NW USA_R64_NE USA_R64_SE USA_R64_SW USA_R64_NW USA_POCI USA_ROCI USA_RMW USA_EYE TOKYO_LAT TOKYO_LON TOKYO_GRADE TOKYO_WIND TOKYO_PRES TOKYO_R50_DIR TOKYO_R50_LONG TOKYO_R50_SHORT TOKYO_R30_DIR TOKYO_R30_LONG TOKYO_R30_SHORT TOKYO_LAND CMA_LAT CMA_LON CMA_CAT CMA_WIND CMA_PRES HKO_LAT HKO_LON HKO_CAT HKO_WIND HKO_PRES NEWDELHI_LAT NEWDELHI_LON NEWDELHI_GRADE NEWDELHI_WIND NEWDELHI_PRES NEWDELHI_CI NEWDELHI_DP NEWDELHI_POCI REUNION_LAT REUNION_LON REUNION_TYPE REUNION_WIND REUNION_PRES REUNION_TNUM REUNION_CI REUNION_RMW REUNION_R34_NE REUNION_R34_SE REUNION_R34_SW REUNION_R34_NW REUNION_R50_NE REUNION_R50_SE REUNION_R50_SW REUNION_R50_NW REUNION_R64_NE REUNION_R64_SE REUNION_R64_SW REUNION_R64_NW BOM_LAT BOM_LON BOM_TYPE BOM_WIND BOM_PRES BOM_TNUM BOM_CI BOM_RMW BOM_R34_NE BOM_R34_SE BOM_R34_SW BOM_R34_NW BOM_R50_NE BOM_R50_SE BOM_R50_SW BOM_R50_NW BOM_R64_NE BOM_R64_SE BOM_R64_SW BOM_R64_NW BOM_ROCI BOM_POCI BOM_EYE BOM_POS_METHOD BOM_PRES_METHOD NADI_LAT NADI_LON NADI_CAT NADI_WIND NADI_PRES WELLINGTON_LAT WELLINGTON_LON WELLINGTON_WIND WELLINGTON_PRES DS824_LAT DS824_LON DS824_STAGE DS824_WIND DS824_PRES TD9636_LAT TD9636_LON TD9636_STAGE TD9636_WIND TD9636_PRES TD9635_LAT TD9635_LON TD9635_WIND TD9635_PRES TD9635_ROCI NEUMANN_LAT NEUMANN_LON NEUMANN_CLASS NEUMANN_WIND NEUMANN_PRES MLC_LAT MLC_LON MLC_CLASS MLC_WIND MLC_PRES USA_GUST BOM_GUST BOM_GUST_PER REUNION_GUST REUNION_GUST_PER USA_SEAHGT USA_SEARAD_NE USA_SEARAD_SE USA_SEARAD_SW USA_SEARAD_NW STORM_SPEED STORM_DIR
1971252N29287 1971 112 NA NA NOT_NAMED 1971-09-08 12:00:00 TS 28.5000 -73.5000 20 hurdat_atl main 585 585 O_____________ hurdat_atl AL151971 28.5000 -73.5000 TD 20 -1 7 21
1971252N29287 1971 112 NA NA NOT_NAMED 1971-09-08 15:00:00 TS 28.8375 -73.3500 main 614 614 P_____________ AL151971 28.8375 -73.3500 TD 20 -1 8 21
1971252N29287 1971 112 NA NA NOT_NAMED 1971-09-08 18:00:00 TS 29.2000 -73.2000 20 hurdat_atl main 659 652 O_____________ hurdat_atl AL151971 29.2000 -73.2000 TD 20 -1 8 18
1971252N29287 1971 112 NA NA NOT_NAMED 1971-09-08 21:00:00 TS 29.6000 -73.0627 main 652 618 P_____________ AL151971 29.6000 -73.0627 TD 22 -1 8 12
1971252N29287 1971 112 NA NA NOT_NAMED 1971-09-09 00:00:00 TS 30.0000 -73.0000 25 hurdat_atl main 618 584 O_____________ hurdat_atl AL151971 30.0000 -73.0000 TD 25 -1 8 0
1971252N29287 1971 112 NA NA NOT_NAMED 1971-09-09 03:00:00 TS 30.3500 -73.0624 main 584 542 P_____________ AL151971 30.3500 -73.0624 TD 25 -1 7 346
1971252N29287 1971 112 NA NA NOT_NAMED 1971-09-09 06:00:00 TS 30.7000 -73.2000 25 hurdat_atl main 542 505 O_____________ hurdat_atl AL151971 30.7000 -73.2000 TD 25 -1 8 351
1971252N29287 1971 112 NA NA NOT_NAMED 1971-09-09 09:00:00 TS 31.1285 -73.2083 main 505 452 P_____________ AL151971 31.1285 -73.2083 TD 25 -1 8 342
1971252N29287 1971 112 NA NA NOT_NAMED 1971-09-09 12:00:00 TS 31.5000 -73.5000 25 hurdat_atl main 452 382 O_____________ hurdat_atl AL151971 31.5000 -73.5000 TD 25 -1 13 296
1971252N29287 1971 112 NA NA NOT_NAMED 1971-09-09 15:00:00 TS 31.6915 -74.5645 main 378 323 P_____________ AL151971 31.6915 -74.5645 TD 25 -1 18 280
1971252N29287 1971 112 NA NA NOT_NAMED 1971-09-09 18:00:00 TS 31.8000 -75.6000 25 hurdat_atl main 323 309 O_____________ hurdat_atl AL151971 31.8000 -75.6000 TD 25 -1 10 284
1971252N29287 1971 112 NA NA NOT_NAMED 1971-09-09 21:00:00 TS 31.9407 -75.7262 main 309 293 P_____________ AL151971 31.9407 -75.7262 TD 25 -1 3 344
1971252N29287 1971 112 NA NA NOT_NAMED 1971-09-10 00:00:00 TS 32.1000 -75.7000 25 hurdat_atl main 293 251 O_____________ hurdat_atl AL151971 32.1000 -75.7000 TD 25 -1 5 313
1971252N29287 1971 112 NA NA NOT_NAMED 1971-09-10 03:00:00 TS 32.2853 -76.1674 main 244 191 P_____________ AL151971 32.2853 -76.1674 TD 25 -1 10 293
1971252N29287 1971 112 NA NA NOT_NAMED 1971-09-10 06:00:00 TS 32.5000 -76.8000 25 hurdat_atl main 191 134 O_____________ hurdat_atl AL151971 32.5000 -76.8000 TD 25 -1 12 295
1971252N29287 1971 112 NA NA NOT_NAMED 1971-09-10 09:00:00 TS 32.7878 -77.4292 main 134 100 P_____________ AL151971 32.7878 -77.4292 TD 25 -1 11 296
1971252N29287 1971 112 NA NA NOT_NAMED 1971-09-10 12:00:00 TS 33.0000 -78.0000 25 hurdat_atl main 100 77 O_____________ hurdat_atl AL151971 33.0000 -78.0000 TD 25 -1 8 285
1971252N29287 1971 112 NA NA NOT_NAMED 1971-09-10 15:00:00 TS 32.9944 -78.3807 main 77 57 P_____________ AL151971 32.9944 -78.3807 TD 22 -1 6 260
1971252N29287 1971 112 NA NA NOT_NAMED 1971-09-10 18:00:00 TS 32.9000 -78.7000 20 hurdat_atl main 57 30 O_____________ hurdat_atl AL151971 32.9000 -78.7000 TD 20 -1 6 257
1971252N29287 1971 112 NA NA NOT_NAMED 1971-09-10 21:00:00 TS 32.8500 -79.1000 main 30 21 P_____________ AL151971 32.8500 -79.1000 TD 20 -1 7 262
1971252N29287 1971 112 NA NA NOT_NAMED 1971-09-11 00:00:00 TS 32.8000 -79.5000 20 hurdat_atl main 21 0 O_____________ hurdat_atl AL151971 32.8000 -79.5000 TD 20 -1 6 262
1971252N29287 1971 112 NA NA NOT_NAMED 1971-09-11 03:00:00 TS 32.7573 -79.8498 main 0 0 P_____________ AL151971 32.7573 -79.8498 TD 20 -1 6 260
1971252N29287 1971 112 NA NA NOT_NAMED 1971-09-11 06:00:00 TS 32.7000 -80.2000 20 hurdat_atl main 0 0 O_____________ hurdat_atl AL151971 32.7000 -80.2000 TD 20 -1 6 257
1971252N29287 1971 112 NA NA NOT_NAMED 1971-09-11 09:00:00 TS 32.6104 -80.5878 main 0 0 P_____________ AL151971 32.6104 -80.5878 TD -1 7 253
1971252N29287 1971 112 NA NA NOT_NAMED 1971-09-11 12:00:00 TS 32.5000 -81.0000 hurdat_atl main 0 O_____________ hurdat_atl AL151971 32.5000 -81.0000 TD -1 7 252

About IBTrACS Database

This database is a web-friendly format of International Best Track Archive for Climate Stewardship (IBTrACS), a global best track data archive curated by NOAA dating back to 1842.

Updated: 2021-11-26